Data for 07/24/2015

Time Sea-Level Adjusted Pressure Absolute Pressure Temperature Relative Humidity Dew Point   
(mb) (inHg) (mb) (inHg) (C) (F) (%) (C) (F)
00:05 1021 30.15 850 25.1 12 53.7 83 9.3 48.8
00:10 1021 30.15 850 25.1 11.8 53.2 84 9.1 48.4
00:15 1021 30.15 850 25.1 11.7 53 83 8.9 48
00:20 1021 30.15 850 25.1 11.8 53.2 82 8.9 48
00:25 1021 30.15 850 25.1 11.7 53 83 8.9 48
00:30 1021 30.15 850 25.1 11.7 53 83 8.8 47.9
00:35 1021 30.15 850 25.1 11.7 53 82 8.7 47.6
00:40 1021 30.15 850 25.1 11.8 53.2 81 8.7 47.6
00:45 1021 30.15 850 25.1 11.9 53.4 80 8.6 47.4
00:50 1021 30.15 850 25.1 12 53.6 79 8.5 47.3
00:55 1021 30.15 850 25.1 12.1 53.7 79 8.6 47.4
01:00 1021 30.15 850 25.1 12 53.6 79 8.6 47.4
01:05 1021 30.15 850 25.1 11.9 53.5 79 8.5 47.3
01:10 1021 30.15 850 25.1 12 53.6 79 8.4 47.2
01:15 1021 30.15 850 25.1 12 53.5 78 8.3 47
01:20 1021 30.15 850 25.1 12.1 53.7 78 8.4 47.2
01:25 1021 30.15 850 25.1 12.1 53.7 78 8.3 47
01:30 1021 30.15 850 25.1 12.1 53.8 77 8.2 46.7
01:35 1021 30.15 850 25.1 12.2 53.9 77 8.3 46.9
01:40 1021 30.15 850 25.1 12.1 53.7 78 8.3 47
01:45 1021 30.15 850 25.1 11.9 53.4 78 8.1 46.6
01:50 1021 30.15 850 25.1 11.9 53.5 76 7.9 46.2
01:55 1021 30.15 850 25.1 12 53.6 77 8.1 46.5
02:00 1021 30.15 850 25.1 12 53.5 77 8 46.5
02:05 1021 30.15 850 25.1 11.9 53.4 76 7.9 46.2
02:10 1021 30.15 850 25.1 11.9 53.5 76 7.9 46.3
02:15 1021 30.15 850 25.1 11.8 53.2 76 7.7 45.9
02:20 1021 30.15 850 25.1 11.9 53.4 76 7.9 46.2
02:25 1021 30.15 850 25.1 11.9 53.4 75 7.7 45.8
02:30 1021 30.15 850 25.1 12 53.7 76 7.9 46.2
02:35 1021 30.15 850 25.1 11.9 53.5 76 7.9 46.2
02:40 1021 30.15 850 25.1 11.7 53.1 77 7.9 46.2
02:45 1021 30.15 850 25.1 11.4 52.6 79 7.9 46.2
02:50 1021 30.15 850 25.1 11.3 52.3 79 7.8 46
02:55 1021 30.15 850 25.1 11.4 52.5 78 7.8 46.1
03:00 1021 30.15 850 25.1 11.5 52.6 78 7.8 46.1
03:05 1021 30.15 850 25.1 11.6 52.8 79 8 46.4
03:10 1021 30.15 850 25.1 11.6 52.8 79 8 46.4
03:15 1021 30.15 850 25.1 11.5 52.6 79 8 46.4
03:20 1021 30.15 850 25.1 11.3 52.4 79 7.9 46.3
03:25 1021 30.15 850 25.1 11.3 52.4 79 7.9 46.2
03:30 1021 30.15 850 25.1 11.3 52.4 80 7.9 46.3
03:35 1021 30.15 850 25.1 11.3 52.3 79 7.8 46.1
03:40 1021 30.15 850 25.1 11.3 52.4 78 7.7 45.9
03:45 1021 30.15 850 25.1 11.1 52 80 7.8 46
03:50 1021 30.15 850 25.1 10.9 51.7 79 7.5 45.4
03:55 1021 30.15 850 25.1 11.1 52 78 7.5 45.5
04:00 1021 30.15 850 25.1 11 51.8 78 7.4 45.3
04:05 1021 30.15 850 25.1 11.3 52.3 76 7.3 45.1
04:10 1021 30.15 850 25.1 11.6 52.8 76 7.4 45.3
04:15 1021 30.15 850 25.1 11.6 52.9 76 7.5 45.6
04:20 1021 30.15 850 25.1 11.5 52.7 76 7.5 45.4
04:25 1021 30.15 850 25.1 11.4 52.6 77 7.6 45.8
04:30 1021 30.15 851 25.13 11.3 52.4 78 7.7 45.8
04:35 1021 30.15 850 25.1 11.2 52.2 78 7.6 45.7
04:40 1021 30.15 851 25.13 11.2 52.2 78 7.6 45.7
04:45 1021 30.15 851 25.13 11 51.9 79 7.6 45.6
04:50 1021 30.15 851 25.13 10.7 51.3 81 7.5 45.6
04:55 1021 30.15 851 25.13 10.5 50.9 80 7.3 45.1
05:00 1021 30.15 851 25.13 10.4 50.7 82 7.4 45.3
05:05 1021 30.15 851 25.13 10.5 50.8 79 7.1 44.7
05:10 1021 30.15 851 25.13 10.9 51.5 78 7.1 44.8
05:15 1021 30.15 851 25.13 11 51.8 78 7.3 45.2
05:20 1021 30.15 851 25.13 10.8 51.5 79 7.4 45.3
05:25 1021 30.15 851 25.13 10.7 51.3 81 7.5 45.6
05:30 1022 30.18 851 25.13 10.5 51 82 7.6 45.7
05:35 1022 30.18 851 25.13 10.5 50.9 82 7.6 45.7
05:40 1022 30.18 851 25.13 10.7 51.2 81 7.5 45.5
05:45 1022 30.18 851 25.13 10.7 51.3 81 7.6 45.8
05:50 1022 30.18 851 25.13 10.7 51.3 81 7.6 45.7
05:55 1022 30.18 851 25.13 10.9 51.6 80 7.6 45.7
06:00 1022 30.18 851 25.13 11.1 51.9 79 7.6 45.7
06:05 1022 30.18 851 25.13 11.3 52.3 79 7.8 46
06:10 1022 30.18 851 25.13 11.6 52.9 77 7.8 46.1
06:15 1022 30.18 851 25.13 11.9 53.4 76 7.9 46.2
06:20 1022 30.18 851 25.13 12.2 53.9 76 8 46.4
06:25 1022 30.18 851 25.13 12.4 54.3 74 8 46.4
06:30 1022 30.18 851 25.13 12.8 55 74 8.3 46.9
06:35 1022 30.18 851 25.13 12.9 55.1 73 8.3 46.9
06:40 1022 30.18 851 25.13 13.1 55.5 73 8.3 47
06:45 1022 30.18 851 25.13 13.2 55.7 72 8.3 47
06:50 1022 30.18 851 25.13 13.4 56.1 72 8.5 47.3
06:55 1022 30.18 851 25.13 14.2 57.5 70 8.8 47.8
07:00 1022 30.18 851 25.13 14.5 58.1 69 8.9 48
07:05 1022 30.18 851 25.13 15 59 68 9.3 48.7
07:10 1022 30.18 851 25.13 15 58.9 68 9.3 48.7
07:15 1022 30.18 851 25.13 14.8 58.6 68 9 48.1
07:20 1022 30.18 851 25.13 15 59.1 69 9.5 49
07:25 1022 30.18 851 25.13 15.6 60.2 67 9.6 49.3
07:30 1022 30.18 851 25.13 16.2 61.1 63 9.2 48.6
07:35 1022 30.18 851 25.13 16.1 61.1 64 9.3 48.8
07:40 1022 30.18 851 25.13 16.6 61.9 63 9.6 49.3
07:45 1022 30.18 851 25.13 16.8 62.2 61 9.3 48.8
07:50 1022 30.18 851 25.13 16.9 62.3 61 9.3 48.7
07:55 1022 30.18 851 25.13 17 62.5 57 8.5 47.3
08:00 1022 30.18 851 25.13 17.3 63.1 56 8.6 47.5
08:05 1022 30.18 851 25.13 17 62.5 56 8.2 46.8
08:10 1022 30.18 851 25.13 17.6 63.7 51 7.5 45.5
08:15 1022 30.18 851 25.13 17.9 64.1 52 8.1 46.5
08:20 1022 30.18 851 25.13 17.1 62.7 55 7.9 46.3
08:25 1022 30.18 851 25.13 17.1 62.8 54 7.8 46
08:30 1022 30.18 851 25.13 17.5 63.4 53 7.9 46.2
08:35 1022 30.18 851 25.13 18.3 65 51 8 46.4
08:40 1022 30.18 851 25.13 19.1 66.4 48 7.9 46.3
08:45 1022 30.18 851 25.13 19 66.3 52 9 48.3
08:50 1022 30.18 851 25.13 19 66.2 48 8 46.4
08:55 1022 30.18 851 25.13 19.8 67.7 47 8.5 47.2
09:00 1022 30.18 851 25.13 19.7 67.4 46 8 46.5
09:05 1022 30.18 851 25.13 19.4 66.9 51 9 48.2
09:10 1022 30.18 851 25.13 19.6 67.3 48 8.3 47
09:15 1022 30.18 851 25.13 20.6 69 46 8.6 47.5
09:20 1022 30.18 851 25.13 20.7 69.3 45 8.5 47.4
09:25 1022 30.18 851 25.13 20.9 69.6 43 7.9 46.2
09:30 1022 30.18 851 25.13 21.1 69.9 42 7.8 46
09:35 1022 30.18 851 25.13 22.2 72 40 8.3 47
09:40 1022 30.18 851 25.13 21.2 70.1 44 8.7 47.7
09:45 1022 30.18 851 25.13 20.9 69.5 43 8 46.4
09:50 1022 30.18 851 25.13 20.8 69.4 44 8.2 46.7
09:55 1022 30.18 851 25.13 21.1 70.1 42 7.8 46
10:00 1022 30.18 851 25.13 22.2 71.9 39 7.8 46.1
10:05 1022 30.18 851 25.13 22.4 72.4 40 8.5 47.3
10:10 1022 30.18 851 25.13 22.2 72 39 7.9 46.2
10:15 1022 30.18 851 25.13 22.9 73.2 38 8 46.5
10:20 1022 30.18 851 25.13 23.9 75.1 33 7.1 44.8
10:25 1022 30.18 851 25.13 24.2 75.6 34 7.4 45.4
10:30 1022 30.18 851 25.13 23.7 74.7 35 7.7 45.8
10:35 1021 30.15 851 25.13 24.2 75.6 33 7.1 44.7
10:40 1021 30.15 851 25.13 24.8 76.6 32 7.2 45
10:45 1021 30.15 851 25.13 24.8 76.7 33 7.6 45.6
10:50 1021 30.15 851 25.13 24.4 76 33 7.5 45.5
10:55 1021 30.15 850 25.1 25.1 77.2 32 7.4 45.4
11:00 1021 30.15 850 25.1 25.7 78.3 30 7.3 45.1
11:05 1021 30.15 850 25.1 24.9 76.8 32 7.3 45.2
11:10 1021 30.15 850 25.1 24.9 76.8 30 6.5 43.7
11:15 1021 30.15 850 25.1 25.9 78.6 31 7.6 45.7
11:20 1021 30.15 850 25.1 25.1 77.2 30 6.8 44.3
11:25 1021 30.15 850 25.1 25.9 78.6 26 5 40.9
11:30 1021 30.15 850 25.1 25.8 78.4 23 3.3 37.9
11:35 1021 30.15 850 25.1 25.5 77.9 27 5.6 42.1
11:40 1021 30.15 850 25.1 26.1 78.9 26 5.4 41.7
11:45 1021 30.15 850 25.1 27.1 80.8 26 6.1 42.9
11:50 1021 30.15 850 25.1 27 80.6 25 5.3 41.6
11:55 1021 30.15 850 25.1 26.5 79.7 25 5 41
12:00 1021 30.15 850 25.1 26.7 80 25 5.5 41.9
12:05 1021 30.15 850 25.1 27.2 81 25 5.9 42.7
12:10 1021 30.15 850 25.1 27.3 81.2 24 5 41
12:15 1021 30.15 850 25.1 27.2 81 24 5.5 41.9
12:20 1021 30.15 850 25.1 27.1 80.7 24 5 41
12:25 1021 30.15 850 25.1 27 80.6 23 4.2 39.5
12:30 1021 30.15 850 25.1 27.2 81 20 2.7 36.8
12:35 1020 30.12 850 25.1 26.2 79.2 23 3.7 38.6
12:40 1020 30.12 850 25.1 25.8 78.5 24 4.2 39.5
12:45 1020 30.12 849 25.07 26.4 79.5 21 2.3 36.2
12:50 1020 30.12 849 25.07 26.7 80.1 23 4.4 39.8
12:55 1020 30.12 849 25.07 27.1 80.7 20 2.6 36.8
13:00 1020 30.12 849 25.07 27.2 80.9 15 -1 30.2
13:05 1020 30.12 849 25.07 27.5 81.6 16 0.1 32.1
13:10 1020 30.12 849 25.07 27.5 81.4 15 -1 30.2
13:15 1020 30.12 849 25.07 26.3 79.4 21 2.6 36.7
13:20 1020 30.12 849 25.07 27.1 80.7 17 0.4 32.7
13:25 1020 30.12 849 25.07 27 80.6 17 -0.1 31.8
13:30 1020 30.12 849 25.07 27.4 81.4 15 -1.2 29.8
13:35 1020 30.12 849 25.07 27.3 81.1 15 -1.1 30
13:40 1020 30.12 849 25.07 26.6 79.8 17 0.1 32.1
13:45 1020 30.12 849 25.07 26.8 80.3 16 -1.2 29.8
13:50 1020 30.12 849 25.07 26.9 80.4 16 -0.7 30.7
13:55 1020 30.12 849 25.07 27 80.5 17 -0.1 31.8
14:00 1020 30.12 849 25.07 28.4 83 15 -0.8 30.6
14:05 1020 30.12 849 25.07 28.3 82.9 14 -1 30.1
14:10 1020 30.12 849 25.07 28 82.3 15 -0.9 30.4
14:15 1020 30.12 849 25.07 28.1 82.6 15 -0.5 31.1
14:20 1020 30.12 849 25.07 27.8 82 14 -1.5 29.3
14:25 1020 30.12 849 25.07 27.7 81.8 15 -0.7 30.7
14:30 1020 30.12 849 25.07 27.1 80.9 15 -1.6 29.1
14:35 1020 30.12 849 25.07 27.1 80.7 15 -1.7 28.9
14:40 1020 30.12 849 25.07 27.9 82.2 14 -1.4 29.5
14:45 1020 30.12 849 25.07 27.8 82 15 -1.1 30
14:50 1019 30.09 849 25.07 27.9 82.2 14 -1.5 29.2
14:55 1019 30.09 849 25.07 27.6 81.6 15 -0.8 30.5
15:00 1019 30.09 849 25.07 27.2 81 15 -1.1 30.1
15:05 1019 30.09 849 25.07 26.9 80.4 15 -1.6 29.1
15:10 1019 30.09 849 25.07 27 80.7 16 -0.8 30.6
15:15 1019 30.09 848 25.04 27.1 80.8 17 -0.1 31.8
15:20 1019 30.09 848 25.04 27.4 81.3 16 -0.7 30.7
15:25 1019 30.09 848 25.04 27.3 81.1 15 -1.2 29.8
15:30 1019 30.09 848 25.04 27.9 82.1 14 -1.4 29.4
15:35 1019 30.09 848 25.04 27.7 81.9 17 0.6 33
15:40 1019 30.09 848 25.04 27.2 80.9 17 -0.1 31.9
15:45 1019 30.09 848 25.04 27.2 80.9 15 -1.3 29.7
15:50 1019 30.09 848 25.04 27.3 81.1 15 -1.1 30
15:55 1019 30.09 848 25.04 27.4 81.3 15 -0.9 30.4
16:00 1019 30.09 848 25.04 27.6 81.7 16 -0.5 31.2
16:05 1019 30.09 848 25.04 27.5 81.6 16 -0.6 31
16:10 1019 30.09 848 25.04 27.8 82.1 15 -0.7 30.7
16:15 1019 30.09 848 25.04 28.2 82.7 15 -0.2 31.7
16:20 1019 30.09 848 25.04 26.9 80.5 19 1.6 34.8
16:25 1019 30.09 848 25.04 26.1 78.9 20 1.5 34.7
16:30 1019 30.09 848 25.04 25.9 78.7 22 2.9 37.2
16:35 1019 30.09 848 25.04 25.6 78.1 22 2.5 36.6
16:40 1019 30.09 848 25.04 25.6 78 23 3 37.4
16:45 1019 30.09 848 25.04 25.5 77.9 23 2.9 37.1
16:50 1019 30.09 848 25.04 25.4 77.7 23 2.8 37
16:55 1019 30.09 848 25.04 25.3 77.5 23 3 37.4
17:00 1019 30.09 848 25.04 25.1 77.2 24 3.4 38.2
17:05 1019 30.09 848 25.04 25 77.1 25 3.7 38.6
17:10 1019 30.09 848 25.04 24.8 76.6 27 4.6 40.3
17:15 1019 30.09 848 25.04 24.7 76.4 26 4.1 39.5
17:20 1019 30.09 848 25.04 24.7 76.4 26 4.2 39.5
17:25 1019 30.09 848 25.04 24.5 76 27 4.4 39.9
17:30 1019 30.09 848 25.04 24.5 76.2 25 3.5 38.3
17:35 1019 30.09 848 25.04 24.9 76.7 25 3.6 38.4
17:40 1019 30.09 848 25.04 25.1 77.1 24 3.5 38.3
17:45 1019 30.09 848 25.04 25.2 77.4 25 4.1 39.3
17:50 1019 30.09 848 25.04 25.2 77.3 24 3.6 38.5
17:55 1019 30.09 848 25.04 24.9 76.7 25 3.8 38.8
18:00 1019 30.09 848 25.04 24.5 76.2 26 3.9 39.1
18:05 1019 30.09 848 25.04 24.3 75.7 26 3.9 39
18:10 1019 30.09 848 25.04 24.2 75.6 26 3.9 39
18:15 1019 30.09 848 25.04 24.2 75.5 27 4.1 39.4
18:20 1019 30.09 848 25.04 24.1 75.4 28 4.5 40
18:25 1019 30.09 848 25.04 24.3 75.7 26 3.6 38.6
18:30 1019 30.09 848 25.04 24.7 76.4 21 1.4 34.6
18:35 1019 30.09 848 25.04 24.6 76.4 24 3.2 37.7
18:40 1019 30.09 848 25.04 24.4 75.8 27 4.2 39.5
18:45 1019 30.09 848 25.04 24.2 75.6 27 4.2 39.5
18:50 1019 30.09 848 25.04 24.1 75.4 27 4.3 39.7
18:55 1019 30.09 848 25.04 23.9 75 28 4.6 40.3
19:00 1019 30.09 848 25.04 23.7 74.7 27 4.1 39.4
19:05 1019 30.09 848 25.04 23.7 74.6 26 3.3 38
19:10 1019 30.09 848 25.04 23.4 74.1 28 3.9 39
19:15 1019 30.09 848 25.04 23.2 73.8 27 3.6 38.5
19:20 1019 30.09 848 25.04 23 73.5 28 3.9 39
19:25 1019 30.09 849 25.07 22.6 72.6 29 3.9 38.9
19:30 1019 30.09 849 25.07 22.4 72.3 28 3.4 38.1
19:35 1019 30.09 849 25.07 22.3 72.1 29 3.4 38.1
19:40 1019 30.09 849 25.07 22.4 72.3 28 3.2 37.8
19:45 1020 30.12 849 25.07 22.3 72.2 28 3.4 38.1
19:50 1020 30.12 849 25.07 22.3 72.1 28 3.1 37.6
19:55 1020 30.12 849 25.07 22.3 72.2 28 3.3 37.9
20:00 1020 30.12 849 25.07 22.2 71.9 28 3.3 37.9
20:05 1020 30.12 849 25.07 22.2 71.9 29 3.5 38.3
20:10 1020 30.12 849 25.07 21.8 71.2 30 3.8 38.9
20:15 1020 30.12 849 25.07 21.3 70.4 31 3.8 38.8
20:20 1020 30.12 849 25.07 21.3 70.4 30 3.2 37.8
20:25 1020 30.12 849 25.07 21.6 70.8 30 3.3 37.9
20:30 1020 30.12 849 25.07 21.4 70.5 31 3.8 38.9
20:35 1020 30.12 849 25.07 21.1 70.1 31 3.5 38.2
20:40 1020 30.12 849 25.07 21.1 70 32 3.8 38.8
20:45 1020 30.12 849 25.07 20.7 69.3 34 4.6 40.2
20:50 1020 30.12 849 25.07 20.2 68.4 39 5.8 42.5
20:55 1020 30.12 849 25.07 19.8 67.6 38 5.1 41.2
21:00 1020 30.12 849 25.07 19.7 67.5 36 4.3 39.7
21:05 1020 30.12 849 25.07 19.7 67.4 34 3.5 38.3
21:10 1020 30.12 849 25.07 19.8 67.7 35 4 39.2
21:15 1020 30.12 849 25.07 19.6 67.3 39 5.5 41.8
21:20 1020 30.12 849 25.07 19.2 66.6 40 5.4 41.8
21:25 1020 30.12 849 25.07 19.2 66.5 39 5.2 41.3
21:30 1020 30.12 849 25.07 19.5 67 37 4.6 40.3
21:35 1020 30.12 849 25.07 19.6 67.4 34 3.7 38.6
21:40 1020 30.12 849 25.07 19.6 67.4 38 4.9 40.8
21:45 1020 30.12 849 25.07 19.2 66.5 39 5 41.1
21:50 1020 30.12 849 25.07 19.1 66.3 39 5 41
21:55 1020 30.12 849 25.07 18.9 66.1 40 5.3 41.5
22:00 1020 30.12 849 25.07 18.8 65.8 40 4.9 40.9
22:05 1020 30.12 849 25.07 18.8 65.8 41 5.2 41.4
22:10 1020 30.12 849 25.07 18.7 65.6 41 5.3 41.5
22:15 1020 30.12 849 25.07 18.8 65.8 40 4.9 40.8
22:20 1020 30.12 849 25.07 18.8 65.8 40 4.9 40.9
22:25 1020 30.12 849 25.07 19.1 66.3 39 4.8 40.6
22:30 1020 30.12 849 25.07 18.9 66.1 39 4.8 40.7
22:35 1020 30.12 849 25.07 18.8 65.8 40 5 41.1
22:40 1020 30.12 849 25.07 18.7 65.7 37 4 39.3
22:45 1020 30.12 849 25.07 19.2 66.5 37 4.1 39.4
22:50 1020 30.12 849 25.07 19.2 66.6 37 4.4 39.9
22:55 1020 30.12 849 25.07 19.2 66.6 38 4.7 40.4
23:00 1020 30.12 849 25.07 19.1 66.3 38 4.4 40
23:05 1020 30.12 849 25.07 19.1 66.5 37 4.3 39.7
23:10 1020 30.12 849 25.07 19.2 66.6 36 3.8 38.8
23:15 1020 30.12 849 25.07 19.3 66.7 36 4.1 39.4
23:20 1020 30.12 849 25.07 19.3 66.7 35 3.8 38.8
23:25 1020 30.12 849 25.07 19.4 66.8 36 4.2 39.6
23:30 1020 30.12 849 25.07 19.2 66.5 36 4.1 39.4
23:35 1020 30.12 849 25.07 19.2 66.5 37 4.3 39.7
23:40 1020 30.12 849 25.07 18.9 66 38 4.2 39.6
23:45 1020 30.12 849 25.07 19 66.3 37 4.3 39.8
23:50 1020 30.12 849 25.07 18.9 66 39 4.8 40.6
23:55 1020 30.12 849 25.07 18.3 65 40 4.8 40.6
24:00 1020 30.12 849 25.07 18.1 64.5 41 4.7 40.5